Terminal Aerodrome Forecast
Issued by NWS

Home | Current Version | Previous Version | Text Only | Print | Product List | Glossary On
Versions: 1 2 3 4 5 6 7 8 9 10 11 12 13 14 15 16 17 18 19 20 21 22
031
FTUS42 KILM 240521
TAFCRE
TAF
KCRE 240521Z 2406/2506 24012G25KT P6SM VCTS OVC025CB
     FM240700 24012G24KT P6SM VCTS OVC015CB
     FM241500 21011G22KT P6SM OVC025 PROB30 2415/2421 2SM TSRA
      OVC004CB
     FM242100 20017G27KT 4SM SHRA OVC030 PROB30 2421/2503 2SM TSRA
      OVC004CB
     FM250300 22011G20KT P6SM SHRA VCTS OVC025CB=

USA.gov is the U.S. government's official web portal to all federal, state and local government web resources and services.